NSZ8AL LKPR-ESSA
Flight info
| Callsign | NSZ8AL |
|---|---|
| Flight time | 1h 43m |
| Altitude | 34000 |
| Route | VENOX DCT DEKOV Y621 GARKI DCT POGAB DCT RENKI L132 BODLA DCT GORPI DCT ARMOD Z228 NILUG |
| Aircraft | B38M/M-SDE1FGHILORVWXY/HB1 |
Departure
| Time | 2026-05-03 22:22 |
|---|---|
| Airport | Václav Havel Airport Prague (LKPR) |
Arrival
| Time | 2026-05-04 00:06 |
|---|---|
| Airport | Stockholm-Arlanda Airport (ESSA) |
| Time | Latitude | Longitude | Altitude | Speed | Heading |
|---|---|---|---|---|---|
| 2026-05-03 21:50 | 50.10854 | 14.26447 | 1176 ft | 0 kts | 34° |
| 2026-05-03 22:13 | 50.10847 | 14.26440 | 1175 ft | 4 kts | 32° |
| 2026-05-03 22:13 | 50.10824 | 14.26421 | 1177 ft | 4 kts | 17° |
| 2026-05-03 22:14 | 50.10799 | 14.26417 | 1177 ft | 4 kts | 341° |
| 2026-05-03 22:14 | 50.10785 | 14.26431 | 1174 ft | 0 kts | 304° |
| 2026-05-03 22:17 | 50.10786 | 14.26431 | 1174 ft | 0 kts | 304° |
| 2026-05-03 22:18 | 50.10789 | 14.26423 | 1174 ft | 3 kts | 304° |
| 2026-05-03 22:18 | 50.10811 | 14.26371 | 1176 ft | 8 kts | 302° |
| 2026-05-03 22:18 | 50.10816 | 14.26281 | 1175 ft | 10 kts | 237° |
| 2026-05-03 22:19 | 50.10756 | 14.26207 | 1178 ft | 12 kts | 215° |
| 2026-05-03 22:19 | 50.10677 | 14.26121 | 1178 ft | 15 kts | 215° |
| 2026-05-03 22:19 | 50.10584 | 14.26028 | 1177 ft | 17 kts | 214° |
| 2026-05-03 22:19 | 50.10540 | 14.25897 | 1185 ft | 15 kts | 290° |
| 2026-05-03 22:20 | 50.10549 | 14.25870 | 1185 ft | 2 kts | 298° |
| 2026-05-03 22:20 | 50.10560 | 14.25838 | 1185 ft | 5 kts | 301° |
| 2026-05-03 22:20 | 50.10589 | 14.25765 | 1185 ft | 10 kts | 301° |
| 2026-05-03 22:20 | 50.10630 | 14.25639 | 1182 ft | 16 kts | 281° |
| 2026-05-03 22:21 | 50.10608 | 14.25505 | 1177 ft | 10 kts | 242° |
| 2026-05-03 22:21 | 50.10586 | 14.25390 | 1176 ft | 12 kts | 258° |
| 2026-05-03 22:21 | 50.10569 | 14.25261 | 1175 ft | 14 kts | 258° |
| 2026-05-03 22:21 | 50.10530 | 14.25126 | 1175 ft | 11 kts | 191° |
| 2026-05-03 22:22 | 50.10510 | 14.25142 | 1176 ft | 0 kts | 129° |
| 2026-05-03 22:22 | 50.10321 | 14.25529 | 1185 ft | 92 kts | 127° |
| 2026-05-03 22:22 | 50.09766 | 14.26673 | 1244 ft | 167 kts | 128° |
| 2026-05-03 22:22 | 50.09037 | 14.28244 | 2060 ft | 178 kts | 129° |
| 2026-05-03 22:23 | 50.08307 | 14.29764 | 3161 ft | 179 kts | 131° |
| 2026-05-03 22:23 | 50.07498 | 14.31407 | 3708 ft | 203 kts | 130° |
| 2026-05-03 22:23 | 50.06916 | 14.32607 | 3844 ft | 216 kts | 129° |
| 2026-05-03 22:23 | 50.05975 | 14.34535 | 3906 ft | 232 kts | 129° |
| 2026-05-03 22:24 | 50.04982 | 14.36583 | 4011 ft | 240 kts | 129° |
| 2026-05-03 22:24 | 50.03967 | 14.38665 | 3985 ft | 243 kts | 129° |
| 2026-05-03 22:24 | 50.02939 | 14.40786 | 4085 ft | 252 kts | 129° |
| 2026-05-03 22:24 | 50.01859 | 14.43013 | 4496 ft | 261 kts | 128° |
| 2026-05-03 22:25 | 50.00794 | 14.45340 | 5749 ft | 270 kts | 118° |
| 2026-05-03 22:25 | 50.00316 | 14.48190 | 6951 ft | 279 kts | 90° |
| 2026-05-03 22:25 | 50.00755 | 14.51151 | 8081 ft | 286 kts | 63° |
| 2026-05-03 22:25 | 50.02002 | 14.53568 | 9192 ft | 291 kts | 39° |
| 2026-05-03 22:26 | 50.03637 | 14.55458 | 10240 ft | 297 kts | 37° |
| 2026-05-03 22:26 | 50.05319 | 14.57423 | 10952 ft | 315 kts | 37° |
| 2026-05-03 22:26 | 50.07127 | 14.59523 | 11614 ft | 332 kts | 37° |
| 2026-05-03 22:26 | 50.09015 | 14.61711 | 12398 ft | 344 kts | 36° |
| 2026-05-03 22:27 | 50.11089 | 14.63599 | 13329 ft | 348 kts | 19° |
| 2026-05-03 22:27 | 50.13480 | 14.64247 | 14134 ft | 352 kts | 356° |
| 2026-05-03 22:27 | 50.15862 | 14.63475 | 14937 ft | 352 kts | 335° |
| 2026-05-03 22:27 | 50.18115 | 14.61912 | 15700 ft | 357 kts | 333° |
| 2026-05-03 22:28 | 50.20399 | 14.60308 | 16484 ft | 362 kts | 333° |
| 2026-05-03 22:28 | 50.22696 | 14.58674 | 17267 ft | 367 kts | 333° |
| 2026-05-03 22:28 | 50.25036 | 14.57001 | 18027 ft | 371 kts | 333° |
| 2026-05-03 22:28 | 50.27398 | 14.55306 | 18723 ft | 376 kts | 333° |
| 2026-05-03 22:29 | 50.29782 | 14.53593 | 19402 ft | 378 kts | 333° |
| 2026-05-03 22:29 | 50.32180 | 14.51855 | 20095 ft | 381 kts | 331° |
| 2026-05-03 22:29 | 50.34330 | 14.49485 | 20737 ft | 378 kts | 312° |
| 2026-05-03 22:29 | 50.36148 | 14.46477 | 21365 ft | 382 kts | 310° |
| 2026-05-03 22:30 | 50.37974 | 14.43434 | 22010 ft | 385 kts | 310° |
| 2026-05-03 22:30 | 50.39802 | 14.40349 | 22668 ft | 387 kts | 310° |
| 2026-05-03 22:30 | 50.41632 | 14.37235 | 23296 ft | 390 kts | 310° |
| 2026-05-03 22:30 | 50.43474 | 14.34087 | 23859 ft | 393 kts | 310° |
| 2026-05-03 22:31 | 50.45309 | 14.30942 | 24381 ft | 396 kts | 310° |
| 2026-05-03 22:31 | 50.47173 | 14.27744 | 24914 ft | 398 kts | 310° |
| 2026-05-03 22:31 | 50.49050 | 14.24517 | 25447 ft | 401 kts | 310° |
| 2026-05-03 22:31 | 50.50936 | 14.21271 | 25965 ft | 403 kts | 310° |
| 2026-05-03 22:32 | 50.52908 | 14.18110 | 26457 ft | 408 kts | 319° |
| 2026-05-03 22:32 | 50.55353 | 14.15816 | 26977 ft | 414 kts | 336° |
| 2026-05-03 22:32 | 50.58157 | 14.14736 | 27449 ft | 420 kts | 353° |
| 2026-05-03 22:32 | 50.61089 | 14.14907 | 27932 ft | 425 kts | 6° |
| 2026-05-03 22:33 | 50.64028 | 14.15534 | 28372 ft | 428 kts | 6° |
| 2026-05-03 22:33 | 50.66991 | 14.16190 | 28832 ft | 430 kts | 6° |
| 2026-05-03 22:33 | 50.69965 | 14.16878 | 29293 ft | 432 kts | 7° |
| 2026-05-03 22:33 | 50.72948 | 14.17587 | 29711 ft | 435 kts | 7° |
| 2026-05-03 22:34 | 50.75949 | 14.18307 | 30140 ft | 437 kts | 7° |
| 2026-05-03 22:34 | 50.78962 | 14.19033 | 30507 ft | 439 kts | 7° |
| 2026-05-03 22:34 | 50.81985 | 14.19763 | 30873 ft | 441 kts | 7° |
| 2026-05-03 22:34 | 50.85031 | 14.20500 | 31229 ft | 443 kts | 7° |
| 2026-05-03 22:35 | 50.88079 | 14.21229 | 31595 ft | 444 kts | 6° |
| 2026-05-03 22:35 | 50.91112 | 14.21269 | 31923 ft | 443 kts | 351° |
| 2026-05-03 22:35 | 50.94170 | 14.20588 | 32248 ft | 445 kts | 351° |
| 2026-05-03 22:35 | 50.97248 | 14.19964 | 32561 ft | 447 kts | 351° |
| 2026-05-03 22:36 | 51.00346 | 14.19307 | 32923 ft | 449 kts | 351° |
| 2026-05-03 22:36 | 51.03434 | 14.18635 | 33362 ft | 448 kts | 351° |
| 2026-05-03 22:36 | 51.06512 | 14.17978 | 33826 ft | 447 kts | 352° |
| 2026-05-03 22:36 | 51.09604 | 14.17374 | 33989 ft | 447 kts | 352° |
| 2026-05-03 22:37 | 51.12675 | 14.16767 | 33976 ft | 444 kts | 351° |
| 2026-05-03 22:37 | 51.18799 | 14.15547 | 33963 ft | 443 kts | 351° |
| 2026-05-03 22:38 | 51.24923 | 14.14324 | 33966 ft | 443 kts | 351° |
| 2026-05-03 22:38 | 51.31044 | 14.13096 | 33963 ft | 443 kts | 351° |
| 2026-05-03 22:39 | 51.37171 | 14.11865 | 33962 ft | 443 kts | 351° |
| 2026-05-03 22:39 | 51.43203 | 14.10156 | 33953 ft | 443 kts | 348° |
| 2026-05-03 22:40 | 51.49316 | 14.08418 | 33939 ft | 443 kts | 348° |
| 2026-05-03 22:40 | 51.55382 | 14.06701 | 33949 ft | 443 kts | 348° |
| 2026-05-03 22:41 | 51.61464 | 14.04977 | 33942 ft | 443 kts | 348° |
| 2026-05-03 22:41 | 51.67503 | 14.03260 | 33940 ft | 444 kts | 348° |
| 2026-05-03 22:42 | 51.73576 | 14.01528 | 33939 ft | 444 kts | 348° |
| 2026-05-03 22:42 | 51.79665 | 13.99787 | 33935 ft | 444 kts | 348° |
| 2026-05-03 22:43 | 51.85776 | 13.98348 | 33929 ft | 445 kts | 358° |
| 2026-05-03 22:43 | 51.91977 | 13.98243 | 33934 ft | 446 kts | 357° |
| 2026-05-03 22:44 | 51.98197 | 13.98111 | 33921 ft | 447 kts | 357° |
| 2026-05-03 22:44 | 52.04413 | 13.97984 | 33928 ft | 447 kts | 357° |
| 2026-05-03 22:45 | 52.10634 | 13.97856 | 33924 ft | 447 kts | 357° |
| 2026-05-03 22:45 | 52.16817 | 13.97730 | 33923 ft | 447 kts | 357° |
| 2026-05-03 22:46 | 52.23036 | 13.97601 | 33918 ft | 447 kts | 357° |
| 2026-05-03 22:46 | 52.29254 | 13.97473 | 33917 ft | 447 kts | 357° |
| 2026-05-03 22:47 | 52.35478 | 13.97344 | 33910 ft | 447 kts | 357° |
| 2026-05-03 22:47 | 52.41712 | 13.97215 | 33912 ft | 447 kts | 357° |
| 2026-05-03 22:48 | 52.47934 | 13.97085 | 33916 ft | 448 kts | 357° |
| 2026-05-03 22:48 | 52.54165 | 13.96955 | 33909 ft | 448 kts | 357° |
| 2026-05-03 22:49 | 52.60393 | 13.96825 | 33909 ft | 448 kts | 357° |
| 2026-05-03 22:49 | 52.66630 | 13.96693 | 33906 ft | 448 kts | 357° |
| 2026-05-03 22:50 | 52.72831 | 13.96563 | 33906 ft | 448 kts | 356° |
| 2026-05-03 22:50 | 52.79107 | 13.96430 | 33905 ft | 448 kts | 356° |
| 2026-05-03 22:51 | 52.85311 | 13.96299 | 33905 ft | 448 kts | 356° |
| 2026-05-03 22:51 | 52.91491 | 13.97407 | 33895 ft | 454 kts | 19° |
| 2026-05-03 22:51 | 52.94286 | 13.99877 | 33912 ft | 459 kts | 33° |
| 2026-05-03 22:52 | 52.96895 | 14.02970 | 33904 ft | 461 kts | 33° |
| 2026-05-03 22:52 | 53.02071 | 14.09234 | 33902 ft | 461 kts | 34° |
| 2026-05-03 22:53 | 53.07215 | 14.15587 | 33898 ft | 460 kts | 34° |
| 2026-05-03 22:53 | 53.12343 | 14.21955 | 33896 ft | 460 kts | 34° |
| 2026-05-03 22:54 | 53.17463 | 14.28334 | 33893 ft | 460 kts | 34° |
| 2026-05-03 22:54 | 53.22579 | 14.34727 | 33899 ft | 459 kts | 34° |
| 2026-05-03 22:55 | 53.27665 | 14.40907 | 33883 ft | 446 kts | 26° |
| 2026-05-03 22:55 | 53.33290 | 14.45115 | 33879 ft | 443 kts | 21° |
| 2026-05-03 22:56 | 53.38946 | 14.49277 | 33898 ft | 443 kts | 21° |
| 2026-05-03 22:56 | 53.44564 | 14.53392 | 33897 ft | 443 kts | 21° |
| 2026-05-03 22:57 | 53.50212 | 14.57538 | 33899 ft | 443 kts | 21° |
| 2026-05-03 22:57 | 53.55864 | 14.61699 | 33906 ft | 443 kts | 21° |
| 2026-05-03 22:58 | 53.61512 | 14.65869 | 33917 ft | 443 kts | 21° |
| 2026-05-03 22:58 | 53.67162 | 14.70053 | 33892 ft | 443 kts | 21° |
| 2026-05-03 22:59 | 53.72807 | 14.74245 | 33905 ft | 443 kts | 21° |
| 2026-05-03 22:59 | 53.78438 | 14.78440 | 33899 ft | 443 kts | 21° |
| 2026-05-03 23:00 | 53.84036 | 14.82621 | 33888 ft | 442 kts | 21° |
| 2026-05-03 23:00 | 53.89667 | 14.86842 | 33891 ft | 442 kts | 21° |
| 2026-05-03 23:01 | 53.95291 | 14.91068 | 33879 ft | 442 kts | 21° |
| 2026-05-03 23:01 | 54.00908 | 14.95302 | 33874 ft | 442 kts | 20° |
| 2026-05-03 23:02 | 54.06527 | 14.99549 | 33875 ft | 442 kts | 20° |
| 2026-05-03 23:02 | 54.12141 | 15.03806 | 33875 ft | 441 kts | 20° |
| 2026-05-03 23:03 | 54.17751 | 15.08077 | 33880 ft | 442 kts | 21° |
| 2026-05-03 23:03 | 54.23351 | 15.12344 | 33874 ft | 441 kts | 21° |
| 2026-05-03 23:04 | 54.28975 | 15.16646 | 33877 ft | 442 kts | 21° |
| 2026-05-03 23:04 | 54.34545 | 15.20920 | 33872 ft | 442 kts | 21° |
| 2026-05-03 23:05 | 54.40157 | 15.25240 | 33874 ft | 442 kts | 21° |
| 2026-05-03 23:05 | 54.45766 | 15.29569 | 33868 ft | 442 kts | 21° |
| 2026-05-03 23:06 | 54.51379 | 15.33915 | 33871 ft | 443 kts | 21° |
| 2026-05-03 23:06 | 54.56995 | 15.38276 | 33867 ft | 443 kts | 21° |
| 2026-05-03 23:07 | 54.62617 | 15.42655 | 33868 ft | 444 kts | 21° |
| 2026-05-03 23:07 | 54.68253 | 15.47059 | 33865 ft | 444 kts | 21° |
| 2026-05-03 23:08 | 54.73885 | 15.51474 | 33867 ft | 445 kts | 21° |
| 2026-05-03 23:08 | 54.79524 | 15.55906 | 33863 ft | 445 kts | 21° |
| 2026-05-03 23:09 | 54.85177 | 15.60360 | 33858 ft | 446 kts | 21° |
| 2026-05-03 23:09 | 54.90787 | 15.64790 | 33861 ft | 445 kts | 20° |
| 2026-05-03 23:10 | 54.96605 | 15.68294 | 33852 ft | 443 kts | 15° |
| 2026-05-03 23:10 | 55.02440 | 15.71827 | 33851 ft | 444 kts | 15° |
| 2026-05-03 23:11 | 55.08269 | 15.75406 | 33852 ft | 444 kts | 15° |
| 2026-05-03 23:11 | 55.14105 | 15.79004 | 33851 ft | 444 kts | 15° |
| 2026-05-03 23:12 | 55.19951 | 15.82620 | 33853 ft | 445 kts | 15° |
| 2026-05-03 23:12 | 55.25788 | 15.86241 | 33848 ft | 445 kts | 15° |
| 2026-05-03 23:13 | 55.31629 | 15.89876 | 33848 ft | 446 kts | 15° |
| 2026-05-03 23:13 | 55.37478 | 15.93528 | 33848 ft | 446 kts | 15° |
| 2026-05-03 23:14 | 55.43292 | 15.97169 | 33848 ft | 446 kts | 15° |
| 2026-05-03 23:14 | 55.49143 | 16.00845 | 33845 ft | 446 kts | 15° |
| 2026-05-03 23:15 | 55.54989 | 16.04530 | 33849 ft | 447 kts | 15° |
| 2026-05-03 23:15 | 55.60843 | 16.08231 | 33847 ft | 447 kts | 15° |
| 2026-05-03 23:16 | 55.65757 | 16.11347 | 33850 ft | 448 kts | 15° |
| 2026-05-03 23:16 | 55.71620 | 16.15075 | 33852 ft | 448 kts | 15° |
| 2026-05-03 23:17 | 55.77488 | 16.18819 | 33856 ft | 449 kts | 15° |
| 2026-05-03 23:17 | 55.83369 | 16.22583 | 33852 ft | 449 kts | 15° |
| 2026-05-03 23:18 | 55.89248 | 16.26359 | 33852 ft | 449 kts | 15° |
| 2026-05-03 23:18 | 55.95132 | 16.30149 | 33848 ft | 450 kts | 15° |
| 2026-05-03 23:19 | 56.00979 | 16.33927 | 33851 ft | 450 kts | 15° |
| 2026-05-03 23:19 | 56.06870 | 16.37747 | 33850 ft | 450 kts | 15° |
| 2026-05-03 23:20 | 56.12767 | 16.41582 | 33852 ft | 451 kts | 15° |
| 2026-05-03 23:20 | 56.18663 | 16.45431 | 33854 ft | 451 kts | 15° |
| 2026-05-03 23:21 | 56.24565 | 16.49295 | 33851 ft | 451 kts | 15° |
| 2026-05-03 23:21 | 56.30474 | 16.53177 | 33851 ft | 452 kts | 15° |
| 2026-05-03 23:22 | 56.39342 | 16.59026 | 33855 ft | 453 kts | 15° |
| 2026-05-03 23:22 | 56.45258 | 16.62945 | 33854 ft | 453 kts | 15° |
| 2026-05-03 23:23 | 56.51176 | 16.66877 | 33856 ft | 454 kts | 15° |
| 2026-05-03 23:23 | 56.57100 | 16.70827 | 33856 ft | 453 kts | 15° |
| 2026-05-03 23:24 | 56.62986 | 16.74765 | 33853 ft | 454 kts | 15° |
| 2026-05-03 23:24 | 56.68908 | 16.78740 | 33850 ft | 454 kts | 15° |
| 2026-05-03 23:25 | 56.74849 | 16.82742 | 33851 ft | 455 kts | 15° |
| 2026-05-03 23:25 | 56.80783 | 16.86752 | 33855 ft | 455 kts | 15° |
| 2026-05-03 23:26 | 56.86733 | 16.90787 | 33849 ft | 456 kts | 16° |
| 2026-05-03 23:26 | 56.92653 | 16.94815 | 33852 ft | 456 kts | 16° |
| 2026-05-03 23:27 | 56.98595 | 16.98871 | 33851 ft | 457 kts | 16° |
| 2026-05-03 23:27 | 57.04552 | 17.02952 | 33855 ft | 457 kts | 16° |
| 2026-05-03 23:28 | 57.10518 | 17.07053 | 33852 ft | 458 kts | 16° |
| 2026-05-03 23:28 | 57.16487 | 17.11170 | 33853 ft | 458 kts | 16° |
| 2026-05-03 23:29 | 57.22459 | 17.15304 | 33851 ft | 459 kts | 16° |
| 2026-05-03 23:29 | 57.28434 | 17.19453 | 33852 ft | 459 kts | 16° |
| 2026-05-03 23:30 | 57.34410 | 17.23615 | 33848 ft | 459 kts | 16° |
| 2026-05-03 23:30 | 57.40356 | 17.27770 | 33851 ft | 459 kts | 16° |
| 2026-05-03 23:31 | 57.46336 | 17.31964 | 33843 ft | 459 kts | 16° |
| 2026-05-03 23:31 | 57.52383 | 17.35508 | 33852 ft | 452 kts | 6° |
| 2026-05-03 23:32 | 57.58559 | 17.37958 | 33847 ft | 454 kts | 7° |
| 2026-05-03 23:32 | 57.64734 | 17.40413 | 33847 ft | 454 kts | 7° |
| 2026-05-03 23:33 | 57.70924 | 17.42879 | 33845 ft | 454 kts | 7° |
| 2026-05-03 23:33 | 57.73969 | 17.44097 | 33628 ft | 442 kts | 6° |
| 2026-05-03 23:33 | 57.76979 | 17.45300 | 33017 ft | 446 kts | 7° |
| 2026-05-03 23:34 | 57.80044 | 17.46527 | 32390 ft | 458 kts | 7° |
| 2026-05-03 23:34 | 57.83176 | 17.47786 | 31950 ft | 462 kts | 6° |
| 2026-05-03 23:34 | 57.86342 | 17.49060 | 31453 ft | 465 kts | 6° |
| 2026-05-03 23:34 | 57.89513 | 17.50338 | 30925 ft | 467 kts | 6° |
| 2026-05-03 23:35 | 57.92689 | 17.51620 | 30413 ft | 466 kts | 6° |
| 2026-05-03 23:35 | 57.95850 | 17.52899 | 29917 ft | 463 kts | 7° |
| 2026-05-03 23:35 | 57.98994 | 17.54172 | 29341 ft | 460 kts | 7° |
| 2026-05-03 23:35 | 58.02115 | 17.55438 | 28835 ft | 457 kts | 7° |
| 2026-05-03 23:36 | 58.05206 | 17.56695 | 28365 ft | 453 kts | 7° |
| 2026-05-03 23:36 | 58.08278 | 17.57946 | 27883 ft | 450 kts | 7° |
| 2026-05-03 23:36 | 58.11323 | 17.59189 | 27407 ft | 447 kts | 7° |
| 2026-05-03 23:36 | 58.14350 | 17.60426 | 26941 ft | 444 kts | 6° |
| 2026-05-03 23:37 | 58.17364 | 17.61660 | 26475 ft | 440 kts | 6° |
| 2026-05-03 23:37 | 58.20337 | 17.62879 | 26025 ft | 437 kts | 6° |
| 2026-05-03 23:37 | 58.23311 | 17.64101 | 25570 ft | 434 kts | 6° |
| 2026-05-03 23:37 | 58.26256 | 17.65313 | 25130 ft | 431 kts | 6° |
| 2026-05-03 23:38 | 58.29176 | 17.66517 | 24689 ft | 429 kts | 6° |
| 2026-05-03 23:38 | 58.32076 | 17.67714 | 24254 ft | 426 kts | 6° |
| 2026-05-03 23:38 | 58.34970 | 17.68911 | 23825 ft | 423 kts | 6° |
| 2026-05-03 23:38 | 58.37835 | 17.70098 | 23394 ft | 420 kts | 6° |
| 2026-05-03 23:39 | 58.40683 | 17.71280 | 22895 ft | 417 kts | 6° |
| 2026-05-03 23:39 | 58.43510 | 17.72456 | 22455 ft | 414 kts | 6° |
| 2026-05-03 23:39 | 58.46319 | 17.73625 | 22044 ft | 412 kts | 6° |
| 2026-05-03 23:39 | 58.49072 | 17.74772 | 21634 ft | 409 kts | 6° |
| 2026-05-03 23:40 | 58.51845 | 17.75931 | 21223 ft | 406 kts | 6° |
| 2026-05-03 23:40 | 58.54592 | 17.77080 | 20815 ft | 404 kts | 6° |
| 2026-05-03 23:40 | 58.57329 | 17.78228 | 20405 ft | 401 kts | 6° |
| 2026-05-03 23:40 | 58.60041 | 17.79366 | 20001 ft | 398 kts | 6° |
| 2026-05-03 23:41 | 58.62742 | 17.80501 | 19598 ft | 396 kts | 6° |
| 2026-05-03 23:41 | 58.65426 | 17.81631 | 19203 ft | 393 kts | 6° |
| 2026-05-03 23:41 | 58.68097 | 17.82758 | 18798 ft | 391 kts | 6° |
| 2026-05-03 23:41 | 58.70746 | 17.83876 | 18402 ft | 389 kts | 6° |
| 2026-05-03 23:42 | 58.73384 | 17.84992 | 17982 ft | 386 kts | 6° |
| 2026-05-03 23:42 | 58.76001 | 17.86100 | 17555 ft | 384 kts | 6° |
| 2026-05-03 23:42 | 58.78598 | 17.87202 | 17154 ft | 380 kts | 6° |
| 2026-05-03 23:42 | 58.81171 | 17.88322 | 16787 ft | 378 kts | 9° |
| 2026-05-03 23:43 | 58.83615 | 17.90317 | 16518 ft | 385 kts | 22° |
| 2026-05-03 23:43 | 58.86010 | 17.92616 | 16264 ft | 384 kts | 21° |
| 2026-05-03 23:43 | 58.88403 | 17.94888 | 15996 ft | 383 kts | 21° |
| 2026-05-03 23:43 | 58.90761 | 17.97121 | 15723 ft | 381 kts | 21° |
| 2026-05-03 23:44 | 58.93138 | 17.99371 | 15449 ft | 379 kts | 21° |
| 2026-05-03 23:44 | 58.95503 | 18.01613 | 15174 ft | 377 kts | 21° |
| 2026-05-03 23:44 | 58.97855 | 18.03845 | 14931 ft | 376 kts | 21° |
| 2026-05-03 23:44 | 59.00201 | 18.06075 | 14648 ft | 375 kts | 21° |
| 2026-05-03 23:45 | 59.02538 | 18.08300 | 14360 ft | 373 kts | 21° |
| 2026-05-03 23:45 | 59.04859 | 18.10513 | 14065 ft | 369 kts | 21° |
| 2026-05-03 23:45 | 59.07160 | 18.12710 | 13810 ft | 369 kts | 22° |
| 2026-05-03 23:45 | 59.09484 | 18.14796 | 13533 ft | 364 kts | 13° |
| 2026-05-03 23:46 | 59.11928 | 18.15509 | 13214 ft | 351 kts | 356° |
| 2026-05-03 23:46 | 59.14371 | 18.15750 | 12997 ft | 352 kts | 358° |
| 2026-05-03 23:46 | 59.16809 | 18.16031 | 12756 ft | 351 kts | 358° |
| 2026-05-03 23:46 | 59.19246 | 18.16315 | 12502 ft | 349 kts | 358° |
| 2026-05-03 23:47 | 59.21660 | 18.16597 | 12249 ft | 348 kts | 358° |
| 2026-05-03 23:47 | 59.24074 | 18.16880 | 11994 ft | 346 kts | 358° |
| 2026-05-03 23:47 | 59.26476 | 18.17162 | 11747 ft | 345 kts | 358° |
| 2026-05-03 23:47 | 59.28866 | 18.17444 | 11497 ft | 341 kts | 358° |
| 2026-05-03 23:48 | 59.31207 | 18.17720 | 11259 ft | 333 kts | 358° |
| 2026-05-03 23:48 | 59.33494 | 18.17991 | 11018 ft | 326 kts | 358° |
| 2026-05-03 23:48 | 59.35740 | 18.18257 | 10786 ft | 320 kts | 358° |
| 2026-05-03 23:48 | 59.37934 | 18.18517 | 10559 ft | 313 kts | 358° |
| 2026-05-03 23:49 | 59.40070 | 18.18770 | 10338 ft | 307 kts | 358° |
| 2026-05-03 23:49 | 59.42187 | 18.19021 | 10113 ft | 301 kts | 357° |
| 2026-05-03 23:49 | 59.44267 | 18.19269 | 9893 ft | 298 kts | 358° |
| 2026-05-03 23:49 | 59.46311 | 18.19512 | 9680 ft | 298 kts | 357° |
| 2026-05-03 23:50 | 59.48361 | 18.19757 | 9470 ft | 291 kts | 358° |
| 2026-05-03 23:50 | 59.49721 | 18.19919 | 9312 ft | 287 kts | 357° |
| 2026-05-03 23:50 | 59.52321 | 18.20230 | 9023 ft | 278 kts | 357° |
| 2026-05-03 23:50 | 59.54228 | 18.20703 | 8795 ft | 276 kts | 6° |
| 2026-05-03 23:51 | 59.56089 | 18.21442 | 8592 ft | 269 kts | 5° |
| 2026-05-03 23:51 | 59.57898 | 18.22137 | 8413 ft | 260 kts | 5° |
| 2026-05-03 23:51 | 59.59650 | 18.22792 | 8234 ft | 252 kts | 5° |
| 2026-05-03 23:51 | 59.61343 | 18.23415 | 8048 ft | 242 kts | 4° |
| 2026-05-03 23:52 | 59.62955 | 18.24003 | 7880 ft | 230 kts | 4° |
| 2026-05-03 23:52 | 59.64497 | 18.24561 | 7700 ft | 220 kts | 4° |
| 2026-05-03 23:52 | 59.65953 | 18.25090 | 7536 ft | 206 kts | 4° |
| 2026-05-03 23:52 | 59.67333 | 18.25588 | 7387 ft | 201 kts | 4° |
| 2026-05-03 23:53 | 59.68704 | 18.26084 | 7263 ft | 200 kts | 4° |
| 2026-05-03 23:53 | 59.70078 | 18.26580 | 7127 ft | 200 kts | 4° |
| 2026-05-03 23:53 | 59.71444 | 18.27074 | 6980 ft | 199 kts | 4° |
| 2026-05-03 23:53 | 59.72788 | 18.27561 | 6845 ft | 198 kts | 4° |
| 2026-05-03 23:54 | 59.74161 | 18.28058 | 6689 ft | 198 kts | 4° |
| 2026-05-03 23:54 | 59.75496 | 18.28542 | 6556 ft | 197 kts | 5° |
| 2026-05-03 23:54 | 59.76861 | 18.29039 | 6411 ft | 197 kts | 5° |
| 2026-05-03 23:54 | 59.78188 | 18.29521 | 6269 ft | 196 kts | 5° |
| 2026-05-03 23:55 | 59.79531 | 18.30008 | 6124 ft | 196 kts | 5° |
| 2026-05-03 23:55 | 59.80867 | 18.30495 | 5971 ft | 195 kts | 5° |
| 2026-05-03 23:55 | 59.82198 | 18.30980 | 5828 ft | 194 kts | 5° |
| 2026-05-03 23:55 | 59.83520 | 18.31463 | 5683 ft | 193 kts | 6° |
| 2026-05-03 23:56 | 59.84844 | 18.31944 | 5533 ft | 192 kts | 6° |
| 2026-05-03 23:56 | 59.86159 | 18.32426 | 5401 ft | 191 kts | 6° |
| 2026-05-03 23:56 | 59.87468 | 18.32902 | 5309 ft | 191 kts | 6° |
| 2026-05-03 23:56 | 59.88771 | 18.33378 | 5214 ft | 191 kts | 6° |
| 2026-05-03 23:57 | 59.90055 | 18.33386 | 5057 ft | 178 kts | 333° |
| 2026-05-03 23:57 | 59.90941 | 18.31852 | 4986 ft | 169 kts | 299° |
| 2026-05-03 23:57 | 59.91328 | 18.29672 | 4953 ft | 168 kts | 271° |
| 2026-05-03 23:57 | 59.91111 | 18.27417 | 4865 ft | 167 kts | 243° |
| 2026-05-03 23:58 | 59.90468 | 18.25496 | 4770 ft | 168 kts | 237° |
| 2026-05-03 23:58 | 59.89838 | 18.23542 | 4615 ft | 167 kts | 238° |
| 2026-05-03 23:58 | 59.89221 | 18.21594 | 4409 ft | 166 kts | 238° |
| 2026-05-03 23:58 | 59.88609 | 18.19645 | 4290 ft | 166 kts | 238° |
| 2026-05-03 23:59 | 59.87998 | 18.17688 | 4195 ft | 166 kts | 238° |
| 2026-05-03 23:59 | 59.87391 | 18.15732 | 4113 ft | 166 kts | 239° |
| 2026-05-03 23:59 | 59.86783 | 18.13774 | 4026 ft | 166 kts | 238° |
| 2026-05-03 23:59 | 59.86188 | 18.11846 | 3934 ft | 166 kts | 239° |
| 2026-05-04 00:00 | 59.85584 | 18.09895 | 3821 ft | 165 kts | 239° |
| 2026-05-04 00:00 | 59.84981 | 18.07943 | 3708 ft | 165 kts | 239° |
| 2026-05-04 00:00 | 59.84380 | 18.05997 | 3603 ft | 165 kts | 239° |
| 2026-05-04 00:00 | 59.83779 | 18.04053 | 3501 ft | 165 kts | 239° |
| 2026-05-04 00:01 | 59.83179 | 18.02113 | 3378 ft | 165 kts | 239° |
| 2026-05-04 00:01 | 59.82577 | 18.00170 | 3263 ft | 165 kts | 239° |
| 2026-05-04 00:01 | 59.81810 | 17.98509 | 3057 ft | 166 kts | 213° |
| 2026-05-04 00:01 | 59.80750 | 17.97595 | 2860 ft | 168 kts | 199° |
| 2026-05-04 00:02 | 59.79607 | 17.97073 | 2627 ft | 169 kts | 193° |
| 2026-05-04 00:02 | 59.78451 | 17.96662 | 2448 ft | 168 kts | 192° |
| 2026-05-04 00:02 | 59.77314 | 17.96253 | 2280 ft | 159 kts | 193° |
| 2026-05-04 00:02 | 59.76621 | 17.96003 | 2177 ft | 146 kts | 193° |
| 2026-05-04 00:03 | 59.75346 | 17.95538 | 1948 ft | 137 kts | 193° |
| 2026-05-04 00:03 | 59.74412 | 17.95199 | 1760 ft | 135 kts | 192° |
| 2026-05-04 00:03 | 59.73488 | 17.94863 | 1562 ft | 135 kts | 192° |
| 2026-05-04 00:03 | 59.72568 | 17.94528 | 1381 ft | 135 kts | 192° |
| 2026-05-04 00:04 | 59.71958 | 17.94305 | 1252 ft | 134 kts | 192° |
| 2026-05-04 00:04 | 59.71039 | 17.93973 | 1056 ft | 134 kts | 191° |
| 2026-05-04 00:04 | 59.70120 | 17.93637 | 849 ft | 134 kts | 190° |
| 2026-05-04 00:04 | 59.69349 | 17.93360 | 703 ft | 134 kts | 189° |
| 2026-05-04 00:05 | 59.68436 | 17.93019 | 516 ft | 130 kts | 189° |
| 2026-05-04 00:05 | 59.67560 | 17.92708 | 356 ft | 127 kts | 188° |
| 2026-05-04 00:05 | 59.66709 | 17.92410 | 200 ft | 121 kts | 189° |
| 2026-05-04 00:05 | 59.65946 | 17.92130 | 147 ft | 97 kts | 191° |
| 2026-05-04 00:06 | 59.65420 | 17.91936 | 147 ft | 62 kts | 190° |
| 2026-05-04 00:06 | 59.65126 | 17.91943 | 144 ft | 32 kts | 163° |
| 2026-05-04 00:06 | 59.65044 | 17.92003 | 142 ft | 0 kts | 155° |
| 2026-05-04 00:07 | 59.65032 | 17.92014 | 141 ft | 6 kts | 155° |
| 2026-05-04 00:07 | 59.64980 | 17.92087 | 141 ft | 12 kts | 137° |
| 2026-05-04 00:07 | 59.64893 | 17.92107 | 140 ft | 15 kts | 191° |
| 2026-05-04 00:07 | 59.64785 | 17.92081 | 140 ft | 16 kts | 168° |
| 2026-05-04 00:08 | 59.64735 | 17.92235 | 140 ft | 12 kts | 112° |
| 2026-05-04 00:08 | 59.64709 | 17.92403 | 140 ft | 8 kts | 104° |
| 2026-05-04 00:08 | 59.64733 | 17.92506 | 140 ft | 5 kts | 37° |
| 2026-05-04 00:08 | 59.64734 | 17.92507 | 140 ft | 0 kts | 37° |